createdAt,value
2022-10-22T00:02:26.073Z,8.68
2022-10-22T00:04:56.275Z,9.02
2022-10-22T00:07:22.672Z,8.77
2022-10-22T00:09:49.006Z,8.52
2022-10-22T00:12:15.674Z,8.10
2022-10-22T00:14:42.536Z,8.90
2022-10-22T00:17:11.515Z,8.52
2022-10-22T00:19:38.371Z,8.57
2022-10-22T00:22:07.728Z,8.60
2022-10-22T00:24:34.684Z,10.00
2022-10-22T00:27:01.311Z,9.20
2022-10-22T00:29:27.706Z,8.27
2022-10-22T00:34:22.328Z,8.75
2022-10-22T00:36:49.281Z,8.32
2022-10-22T00:39:17.839Z,8.60
2022-10-22T00:41:44.561Z,8.68
2022-10-22T00:44:29.701Z,8.98
2022-10-22T00:46:57.202Z,8.30
2022-10-22T00:49:23.633Z,8.95
2022-10-22T00:51:49.968Z,8.88
2022-10-22T00:54:16.297Z,9.15
2022-10-22T00:56:42.820Z,8.57
2022-10-22T00:59:10.357Z,9.07
2022-10-22T01:01:36.884Z,8.68
2022-10-22T01:04:03.221Z,9.80
2022-10-22T01:06:33.223Z,9.15
2022-10-22T01:09:08.323Z,8.40
2022-10-22T01:11:45.775Z,9.10
2022-10-22T01:14:19.567Z,7.78
2022-10-22T01:16:49.121Z,8.00
2022-10-22T01:19:27.704Z,7.85
2022-10-22T01:21:59.650Z,7.22
2022-10-22T01:24:35.200Z,7.57
2022-10-22T01:27:36.912Z,6.88
2022-10-22T01:30:07.736Z,7.32
2022-10-22T01:32:40.546Z,7.20
2022-10-22T01:35:09.292Z,7.00
2022-10-22T01:37:38.814Z,6.70
2022-10-22T01:40:05.913Z,6.45
2022-10-22T01:42:32.234Z,6.88
2022-10-22T01:44:58.578Z,7.53
2022-10-22T01:47:37.464Z,7.45
2022-10-22T01:50:10.034Z,7.05
2022-10-22T01:52:55.247Z,6.95
2022-10-22T01:55:31.065Z,6.40
2022-10-22T01:58:10.401Z,6.55
2022-10-22T02:00:38.780Z,6.38
2022-10-22T02:03:13.868Z,6.72
2022-10-22T02:05:49.104Z,6.38
2022-10-22T02:08:20.639Z,6.07
2022-10-22T02:10:48.188Z,7.22
2022-10-22T02:13:17.418Z,6.18
2022-10-22T02:15:45.093Z,6.93
2022-10-22T02:18:11.815Z,6.75
2022-10-22T02:20:40.753Z,6.47
2022-10-22T02:23:07.229Z,6.75
2022-10-22T02:25:38.189Z,6.72
2022-10-22T02:30:31.455Z,7.40
2022-10-22T02:33:00.339Z,6.93
2022-10-22T02:35:27.749Z,8.25
2022-10-22T02:37:55.207Z,8.30
2022-10-22T02:40:22.133Z,7.60
2022-10-22T02:42:49.119Z,7.20
2022-10-22T02:45:16.032Z,7.05
2022-10-22T02:47:42.391Z,7.57
2022-10-22T02:50:10.375Z,7.28
2022-10-22T02:52:37.536Z,8.13
2022-10-22T02:55:04.485Z,7.30
2022-10-22T02:57:30.833Z,8.10
2022-10-22T02:59:57.151Z,7.32
2022-10-22T03:02:23.665Z,7.35
2022-10-22T03:04:50.020Z,8.23
2022-10-22T03:07:16.374Z,7.88
2022-10-22T03:09:42.778Z,7.75
2022-10-22T03:12:09.164Z,8.43
2022-10-22T03:14:35.729Z,7.78
2022-10-22T03:17:02.130Z,7.88
2022-10-22T03:19:28.449Z,7.00
2022-10-22T03:21:56.582Z,8.52
2022-10-22T03:24:26.095Z,7.43
2022-10-22T03:26:53.085Z,7.78
2022-10-22T03:29:20.937Z,8.57
2022-10-22T03:31:47.250Z,7.97
2022-10-22T03:34:13.587Z,7.93
2022-10-22T03:36:40.574Z,8.15
2022-10-22T03:39:07.270Z,7.60
2022-10-22T03:41:36.280Z,8.10
2022-10-22T03:44:04.019Z,7.88
2022-10-22T03:46:30.442Z,8.15
2022-10-22T03:48:56.822Z,7.80
2022-10-22T03:51:23.283Z,7.47
2022-10-22T03:53:49.612Z,7.35
2022-10-22T03:56:15.929Z,7.25
2022-10-22T03:58:42.387Z,7.78
2022-10-22T04:01:09.716Z,8.25
2022-10-22T04:03:36.533Z,7.85
2022-10-22T04:06:03.821Z,7.05
2022-10-22T04:08:30.258Z,7.78
2022-10-22T04:10:56.686Z,8.20
2022-10-22T04:13:23.124Z,8.32
2022-10-22T04:15:49.492Z,7.57
2022-10-22T04:18:15.838Z,7.88
2022-10-22T04:20:42.178Z,7.60
2022-10-22T04:23:08.518Z,8.55
2022-10-22T04:25:34.859Z,7.63
2022-10-22T04:28:01.309Z,8.65
2022-10-22T04:30:27.645Z,8.25
2022-10-22T04:32:53.969Z,7.22
2022-10-22T04:35:20.545Z,7.70
2022-10-22T04:37:46.881Z,8.52
2022-10-22T04:40:13.227Z,7.75
2022-10-22T04:42:39.582Z,7.70
2022-10-22T04:45:06.118Z,7.07
2022-10-22T04:47:32.479Z,7.22
2022-10-22T04:49:58.810Z,8.43
2022-10-22T04:52:25.237Z,7.95
2022-10-22T04:54:51.852Z,8.77
2022-10-22T04:57:18.165Z,7.45
2022-10-22T04:59:44.511Z,7.80
2022-10-22T05:02:10.907Z,7.65
2022-10-22T05:04:38.587Z,8.05
2022-10-22T05:07:04.924Z,6.90
2022-10-22T05:09:31.262Z,7.47
2022-10-22T05:11:57.696Z,7.00
2022-10-22T05:14:24.614Z,7.00
2022-10-22T05:16:51.477Z,7.03
2022-10-22T05:19:19.681Z,6.88
2022-10-22T05:21:48.199Z,6.80
2022-10-22T05:24:14.715Z,7.68
2022-10-22T05:26:41.090Z,9.02
2022-10-22T05:29:07.459Z,13.93
2022-10-22T05:31:34.214Z,11.38
2022-10-22T05:34:00.675Z,9.35
2022-10-22T05:36:27.527Z,10.00
2022-10-22T05:38:53.977Z,7.70
2022-10-22T05:41:21.621Z,6.63
2022-10-22T05:43:48.264Z,7.00
2022-10-22T05:46:21.288Z,7.28
2022-10-22T05:48:50.102Z,7.22
2022-10-22T05:51:16.555Z,7.38
2022-10-22T05:53:43.311Z,6.60
2022-10-22T05:56:13.986Z,6.40
2022-10-22T05:58:40.421Z,5.72
2022-10-22T06:01:08.163Z,6.22
2022-10-22T06:03:34.557Z,6.15
2022-10-22T06:06:01.841Z,5.95
2022-10-22T06:08:28.749Z,6.60
2022-10-22T06:10:55.133Z,5.63
2022-10-22T06:13:22.871Z,5.65
2022-10-22T06:15:50.484Z,5.80
2022-10-22T06:18:17.025Z,5.68
2022-10-22T06:20:44.579Z,5.45
2022-10-22T06:23:10.977Z,5.53
2022-10-22T06:25:37.312Z,7.05
2022-10-22T06:28:03.740Z,6.05
2022-10-22T06:30:33.473Z,5.72
2022-10-22T06:32:59.800Z,5.38
2022-10-22T06:35:26.128Z,5.60
2022-10-22T06:37:52.472Z,5.82
2022-10-22T06:40:19.347Z,5.75
2022-10-22T06:42:45.779Z,5.22
2022-10-22T06:45:12.126Z,5.68
2022-10-22T06:47:40.943Z,5.43
2022-10-22T06:50:07.698Z,5.70
2022-10-22T06:52:34.069Z,5.53
2022-10-22T06:55:00.496Z,5.38
2022-10-22T06:57:26.855Z,5.32
2022-10-22T06:59:53.182Z,6.13
2022-10-22T07:02:19.516Z,5.93
2022-10-22T07:04:45.927Z,6.00
2022-10-22T07:07:12.247Z,6.70
2022-10-22T07:09:39.349Z,6.25
2022-10-22T07:12:05.941Z,7.68
2022-10-22T07:14:32.434Z,7.28
2022-10-22T07:16:58.804Z,7.38
2022-10-22T07:19:25.123Z,7.93
2022-10-22T07:21:51.428Z,6.63
2022-10-22T07:24:17.888Z,6.85
2022-10-22T07:26:44.234Z,7.28
2022-10-22T07:29:15.441Z,7.30
2022-10-22T07:31:42.212Z,6.63
2022-10-22T07:34:08.727Z,6.60
2022-10-22T07:36:35.311Z,6.75
2022-10-22T07:39:02.042Z,6.32
2022-10-22T07:41:29.246Z,6.45
2022-10-22T07:43:55.971Z,6.50
2022-10-22T07:46:22.733Z,6.18
2022-10-22T07:48:49.133Z,6.70
2022-10-22T07:51:15.498Z,5.57
2022-10-22T07:53:42.008Z,6.07
2022-10-22T07:56:08.728Z,5.75
2022-10-22T07:58:35.741Z,5.95
2022-10-22T08:01:02.477Z,6.20
2022-10-22T08:03:31.488Z,5.20
2022-10-22T08:05:58.189Z,7.75
2022-10-22T08:08:27.174Z,7.40
2022-10-22T08:10:57.043Z,6.97
2022-10-22T08:13:23.966Z,6.30
2022-10-22T08:15:52.435Z,5.45
2022-10-22T08:20:47.654Z,4.65
2022-10-22T08:23:14.009Z,4.78
2022-10-22T08:25:40.354Z,4.70
2022-10-22T08:28:06.753Z,4.90
2022-10-22T08:30:34.011Z,4.25
2022-10-22T08:33:00.348Z,3.88
2022-10-22T08:35:26.657Z,3.75
2022-10-22T08:37:56.498Z,4.35
2022-10-22T08:40:30.274Z,3.78
2022-10-22T08:42:59.355Z,3.80
2022-10-22T08:45:32.763Z,3.22
2022-10-22T08:48:17.396Z,3.15
2022-10-22T08:50:51.025Z,3.55
2022-10-22T08:53:19.225Z,3.55
2022-10-22T08:55:46.121Z,3.63
2022-10-22T08:58:20.995Z,22.33
2022-10-22T09:01:02.645Z,3.95
2022-10-22T09:03:32.178Z,5.35
2022-10-22T09:05:58.497Z,6.25
2022-10-22T09:08:24.856Z,4.80
2022-10-22T09:10:54.948Z,7.85
2022-10-22T09:13:22.850Z,8.57
2022-10-22T09:15:51.232Z,3.95
2022-10-22T09:18:23.656Z,3.33
2022-10-22T09:20:53.173Z,3.75
2022-10-22T09:23:19.457Z,3.05
2022-10-22T09:25:46.908Z,4.22
2022-10-22T09:28:13.778Z,3.60
2022-10-22T09:30:40.284Z,4.07
2022-10-22T09:33:06.602Z,2.97
2022-10-22T09:35:44.075Z,3.25
2022-10-22T09:38:12.493Z,3.03
2022-10-22T09:40:43.680Z,3.72
2022-10-22T09:43:12.793Z,3.05
2022-10-22T09:45:39.154Z,3.58
2022-10-22T09:48:28.454Z,3.58
2022-10-22T09:51:18.073Z,2.28
2022-10-22T09:53:57.829Z,2.35
2022-10-22T09:56:43.557Z,2.35
2022-10-22T09:59:16.903Z,2.40
2022-10-22T10:01:44.561Z,2.10
2022-10-22T10:04:12.186Z,2.22
2022-10-22T10:06:42.897Z,2.42
2022-10-22T10:09:14.567Z,2.55
2022-10-22T10:11:46.287Z,2.30
2022-10-22T10:14:19.386Z,3.17
2022-10-22T10:17:00.486Z,2.08
2022-10-22T10:22:11.897Z,2.08
2022-10-22T10:24:56.993Z,2.35
2022-10-22T10:27:32.625Z,2.08
2022-10-22T10:30:01.737Z,2.55
2022-10-22T10:32:48.239Z,2.67
2022-10-22T10:35:26.750Z,2.35
2022-10-22T10:38:11.356Z,2.30
2022-10-22T10:40:44.973Z,2.20
2022-10-22T10:43:15.243Z,3.25
2022-10-22T10:45:56.943Z,2.53
2022-10-22T10:48:23.266Z,2.08
2022-10-22T10:50:58.805Z,2.45
2022-10-22T10:53:28.135Z,2.40
2022-10-22T10:55:57.583Z,2.28
2022-10-22T10:58:50.369Z,2.10
2022-10-22T11:01:22.841Z,2.33
2022-10-22T11:04:08.176Z,1.98
2022-10-22T11:06:37.202Z,2.00
2022-10-22T11:09:23.110Z,1.85
2022-10-22T11:11:59.184Z,1.70
2022-10-22T11:14:30.081Z,1.95
2022-10-22T11:17:11.398Z,2.10
2022-10-22T11:19:51.593Z,1.75
2022-10-22T11:22:26.494Z,1.90
2022-10-22T11:24:56.274Z,1.60
2022-10-22T11:27:27.002Z,1.73
2022-10-22T11:29:56.253Z,2.25
2022-10-22T11:32:23.707Z,3.65
2022-10-22T11:34:51.925Z,4.68
2022-10-22T11:37:18.961Z,3.13
2022-10-22T11:39:48.963Z,2.40
2022-10-22T11:42:20.607Z,2.57
2022-10-22T11:44:48.145Z,3.00
2022-10-22T11:47:24.563Z,2.47
2022-10-22T11:49:58.528Z,2.35
2022-10-22T11:52:26.916Z,2.80
2022-10-22T11:54:57.843Z,2.45
2022-10-22T11:59:52.516Z,2.60
2022-10-22T12:02:39.873Z,2.35
2022-10-22T12:05:19.846Z,2.75
2022-10-22T12:07:53.068Z,2.47
2022-10-22T12:10:20.787Z,2.70
2022-10-22T12:12:55.746Z,3.15
2022-10-22T12:15:24.197Z,2.90
2022-10-22T12:17:50.753Z,3.60
2022-10-22T12:20:17.648Z,3.15
2022-10-22T12:22:44.241Z,3.50
2022-10-22T12:25:24.140Z,3.22
2022-10-22T12:27:53.347Z,2.90
2022-10-22T12:30:24.002Z,3.17
2022-10-22T12:32:54.913Z,3.25
2022-10-22T12:37:51.478Z,2.95
2022-10-22T12:40:21.063Z,3.20
2022-10-22T12:42:48.181Z,2.92
2022-10-22T12:45:14.642Z,3.17
2022-10-22T12:47:45.142Z,2.88
2022-10-22T12:50:16.208Z,3.35
2022-10-22T12:52:45.970Z,3.17
2022-10-22T12:55:16.385Z,3.33
2022-10-22T12:57:42.841Z,3.30
2022-10-22T13:00:26.424Z,3.75
2022-10-22T13:02:52.984Z,3.10
2022-10-22T13:05:19.422Z,3.40
2022-10-22T13:07:50.844Z,3.65
2022-10-22T13:10:27.674Z,3.55
2022-10-22T13:12:55.219Z,3.53
2022-10-22T13:15:21.830Z,3.47
2022-10-22T13:17:50.002Z,3.53
2022-10-22T13:20:19.145Z,3.35
2022-10-22T13:23:01.077Z,3.70
2022-10-22T13:25:29.226Z,3.30
2022-10-22T13:28:02.887Z,3.15
2022-10-22T13:30:29.281Z,3.15
2022-10-22T13:32:59.910Z,3.03
2022-10-22T13:35:32.145Z,3.75
2022-10-22T13:37:59.214Z,3.17
2022-10-22T13:40:25.946Z,4.75
2022-10-22T13:42:52.374Z,3.70
2022-10-22T13:45:18.913Z,4.00
2022-10-22T13:47:48.214Z,3.67
2022-10-22T13:50:15.715Z,4.05
2022-10-22T13:52:43.840Z,4.15
2022-10-22T13:55:36.769Z,3.60
2022-10-22T13:58:19.909Z,3.70
2022-10-22T14:00:47.746Z,3.83
2022-10-22T14:03:19.445Z,3.92
2022-10-22T14:05:46.456Z,3.83
2022-10-22T14:08:14.067Z,3.58
2022-10-22T14:10:40.507Z,3.80
2022-10-22T14:13:07.915Z,3.63
2022-10-22T14:15:34.511Z,4.03
2022-10-22T14:18:01.540Z,3.53
2022-10-22T14:20:28.941Z,4.50
2022-10-22T14:22:55.582Z,3.47
2022-10-22T14:25:23.339Z,4.07
2022-10-22T14:27:49.785Z,3.75
2022-10-22T14:30:20.417Z,3.67
2022-10-22T14:32:48.240Z,3.92
2022-10-22T14:35:16.013Z,3.78
2022-10-22T14:37:42.497Z,4.45
2022-10-22T14:40:11.965Z,4.03
2022-10-22T14:42:40.728Z,5.72
2022-10-22T14:45:11.489Z,5.00
2022-10-22T14:47:37.886Z,5.00
2022-10-22T14:50:06.620Z,4.97
2022-10-22T14:52:32.941Z,4.30
2022-10-22T14:54:59.329Z,4.50
2022-10-22T14:57:25.706Z,3.72
2022-10-22T14:59:54.835Z,4.15
2022-10-22T15:02:21.857Z,4.57
2022-10-22T15:04:49.783Z,4.43
2022-10-22T15:07:20.334Z,4.70
2022-10-22T15:09:46.825Z,4.30
2022-10-22T15:12:16.058Z,4.38
2022-10-22T15:14:42.509Z,5.00
2022-10-22T15:17:08.880Z,5.25
2022-10-22T15:19:35.231Z,5.10
2022-10-22T15:22:01.803Z,6.32
2022-10-22T15:24:31.764Z,5.35
2022-10-22T15:26:58.113Z,5.95
2022-10-22T15:29:24.785Z,5.88
2022-10-22T15:31:52.962Z,5.40
2022-10-22T15:34:22.779Z,5.15
2022-10-22T15:36:49.364Z,5.10
2022-10-22T15:39:15.728Z,5.35
2022-10-22T15:41:42.085Z,5.50
2022-10-22T15:44:11.211Z,6.20
2022-10-22T15:46:37.627Z,5.65
2022-10-22T15:49:04.428Z,5.82
2022-10-22T15:51:30.899Z,5.63
2022-10-22T15:53:58.363Z,7.20
2022-10-22T15:56:25.942Z,6.57
2022-10-22T15:58:53.300Z,6.18
2022-10-22T16:01:19.748Z,6.70
2022-10-22T16:03:46.217Z,7.75
2022-10-22T16:06:12.626Z,8.10
2022-10-22T16:08:39.282Z,6.50
2022-10-22T16:11:05.900Z,8.27
2022-10-22T16:13:32.254Z,7.22
2022-10-22T16:16:00.741Z,7.25
2022-10-22T16:18:27.136Z,7.32
2022-10-22T16:20:53.479Z,7.78
2022-10-22T16:23:20.887Z,8.30
2022-10-22T16:25:47.278Z,9.23
2022-10-22T16:28:13.892Z,8.43
2022-10-22T16:30:41.794Z,7.28
2022-10-22T16:33:13.312Z,6.30
2022-10-22T16:35:41.366Z,6.10
2022-10-22T16:38:08.075Z,6.07
2022-10-22T16:40:34.494Z,6.22
2022-10-22T16:43:00.853Z,5.80
2022-10-22T16:45:27.202Z,6.10
2022-10-22T16:47:53.707Z,5.70
2022-10-22T16:50:22.446Z,6.10
2022-10-22T16:52:48.911Z,5.50
2022-10-22T16:55:15.335Z,6.03
2022-10-22T16:57:41.916Z,6.28
2022-10-22T17:00:10.440Z,6.57
2022-10-22T17:02:37.490Z,5.97
2022-10-22T17:05:03.950Z,6.28
2022-10-22T17:07:32.956Z,6.00
2022-10-22T17:09:59.398Z,6.22
2022-10-22T17:12:25.814Z,6.30
2022-10-22T17:14:52.266Z,6.65
2022-10-22T17:17:18.682Z,6.18
2022-10-22T17:19:45.084Z,5.93
2022-10-22T17:22:14.848Z,5.68
2022-10-22T17:24:47.173Z,6.05
2022-10-22T17:27:13.564Z,6.50
2022-10-22T17:29:39.909Z,7.10
2022-10-22T17:32:06.237Z,6.05
2022-10-22T17:34:33.276Z,6.00
2022-10-22T17:37:00.328Z,5.95
2022-10-22T17:39:26.957Z,7.38
2022-10-22T17:41:53.397Z,6.25
2022-10-22T17:44:19.733Z,6.35
2022-10-22T17:46:46.160Z,7.25
2022-10-22T17:49:15.663Z,6.43
2022-10-22T17:51:42.117Z,7.18
2022-10-22T17:54:09.988Z,7.18
2022-10-22T17:56:37.685Z,8.35
2022-10-22T17:59:04.382Z,7.70
2022-10-22T18:01:31.780Z,7.50
2022-10-22T18:04:05.767Z,7.32
2022-10-22T18:06:32.592Z,8.10
2022-10-22T18:08:58.938Z,8.38
2022-10-22T18:11:26.633Z,9.60
2022-10-22T18:13:55.021Z,11.48
2022-10-22T18:16:21.696Z,12.68
2022-10-22T18:18:49.044Z,11.98
2022-10-22T18:21:16.024Z,11.48
2022-10-22T18:23:42.820Z,11.18
2022-10-22T18:26:09.331Z,9.93
2022-10-22T18:28:36.301Z,9.52
2022-10-22T18:31:07.175Z,9.57
2022-10-22T18:33:34.319Z,9.45
2022-10-22T18:36:08.024Z,9.98
2022-10-22T18:38:34.611Z,8.73
2022-10-22T18:41:01.180Z,9.23
2022-10-22T18:43:27.568Z,9.13
2022-10-22T18:45:53.942Z,11.02
2022-10-22T18:48:23.117Z,10.05
2022-10-22T18:50:58.493Z,8.88
2022-10-22T18:53:25.015Z,8.63
2022-10-22T18:55:51.673Z,9.00
2022-10-22T18:58:18.377Z,8.48
2022-10-22T19:00:44.813Z,8.98
2022-10-22T19:03:12.769Z,8.38
2022-10-22T19:05:46.794Z,8.50
2022-10-22T19:08:13.364Z,8.32
2022-10-22T19:10:39.847Z,9.18
2022-10-22T19:13:06.192Z,8.52
2022-10-22T19:15:32.551Z,9.18
2022-10-22T19:17:58.877Z,9.60
2022-10-22T19:20:25.214Z,8.23
2022-10-22T19:22:53.413Z,7.90
2022-10-22T19:25:19.806Z,9.95
2022-10-22T19:27:46.199Z,9.23
2022-10-22T19:30:12.861Z,13.05
2022-10-22T19:32:39.292Z,10.80
2022-10-22T19:35:08.040Z,9.73
2022-10-22T19:37:34.624Z,9.30
2022-10-22T19:40:00.965Z,10.52
2022-10-22T19:42:27.361Z,10.50
2022-10-22T19:44:53.699Z,10.30
2022-10-22T19:47:20.218Z,10.02
2022-10-22T19:49:46.607Z,9.35
2022-10-22T19:52:13.092Z,10.32
2022-10-22T19:54:41.697Z,10.48
2022-10-22T19:57:08.648Z,11.32
2022-10-22T19:59:35.335Z,10.05
2022-10-22T20:02:01.719Z,9.85
2022-10-22T20:04:28.123Z,10.07
2022-10-22T20:06:54.886Z,9.57
2022-10-22T20:09:21.402Z,9.70
2022-10-22T20:11:50.737Z,11.50
2022-10-22T20:14:17.334Z,11.50
2022-10-22T20:16:43.928Z,11.75
2022-10-22T20:19:11.096Z,11.65
2022-10-22T20:21:37.670Z,11.07
2022-10-22T20:24:04.258Z,9.70
2022-10-22T20:26:31.790Z,10.27
2022-10-22T20:28:59.033Z,9.65
2022-10-22T20:31:27.145Z,8.90
2022-10-22T20:33:57.990Z,8.82
2022-10-22T20:36:24.965Z,10.13
2022-10-22T20:38:51.546Z,9.65
2022-10-22T20:41:22.471Z,8.65
2022-10-22T20:46:19.764Z,8.45
2022-10-22T20:51:12.858Z,7.47
2022-10-22T20:53:39.270Z,9.15
2022-10-22T20:56:06.629Z,9.35
2022-10-22T20:58:33.066Z,9.15
2022-10-22T21:01:01.999Z,9.75
2022-10-22T21:03:28.426Z,9.65
2022-10-22T21:05:54.816Z,9.57
2022-10-22T21:08:21.299Z,9.73
2022-10-22T21:10:49.160Z,8.82
2022-10-22T21:13:15.917Z,8.55
2022-10-22T21:15:42.400Z,9.27
2022-10-22T21:18:08.852Z,8.10
2022-10-22T21:20:35.353Z,8.40
2022-10-22T21:23:01.892Z,8.00
2022-10-22T21:25:29.614Z,7.35
2022-10-22T21:27:56.055Z,8.13
2022-10-22T21:30:22.464Z,10.80
2022-10-22T21:32:48.962Z,11.88
2022-10-22T21:35:15.433Z,11.93
2022-10-22T21:37:42.066Z,12.15
2022-10-22T21:40:08.795Z,12.77
2022-10-22T21:42:35.435Z,10.73
2022-10-22T21:45:01.849Z,8.63
2022-10-22T21:47:28.340Z,8.88
2022-10-22T21:49:54.839Z,7.43
2022-10-22T21:52:21.306Z,10.15
2022-10-22T21:54:47.863Z,9.10
2022-10-22T21:57:14.221Z,8.05
2022-10-22T21:59:40.645Z,8.55
2022-10-22T22:02:08.497Z,7.15
2022-10-22T22:04:36.003Z,7.65
2022-10-22T22:07:02.418Z,7.93
2022-10-22T22:09:28.766Z,7.95
2022-10-22T22:11:55.116Z,8.77
2022-10-22T22:14:22.771Z,8.43
2022-10-22T22:16:49.178Z,10.25
2022-10-22T22:19:15.545Z,8.80
2022-10-22T22:21:42.052Z,8.75
2022-10-22T22:24:09.326Z,8.82
2022-10-22T22:26:36.192Z,8.73
2022-10-22T22:29:02.757Z,6.97
2022-10-22T22:31:30.124Z,8.23
2022-10-22T22:34:00.187Z,7.53
2022-10-22T22:36:26.619Z,7.77
2022-10-22T22:38:56.591Z,7.05
2022-10-22T22:41:25.182Z,7.13
2022-10-22T22:43:51.564Z,6.45
2022-10-22T22:46:17.990Z,6.90
2022-10-22T22:48:44.374Z,6.88
2022-10-22T22:51:11.298Z,7.53
2022-10-22T22:53:37.670Z,7.32
2022-10-22T22:56:04.003Z,7.55
2022-10-22T22:58:30.397Z,7.95
2022-10-22T23:01:07.102Z,8.23
2022-10-22T23:03:33.529Z,9.07
2022-10-22T23:06:02.416Z,8.52
2022-10-22T23:08:28.796Z,10.32
2022-10-22T23:10:55.179Z,9.07
2022-10-22T23:13:21.514Z,8.65
2022-10-22T23:15:50.963Z,7.78
2022-10-22T23:18:17.596Z,9.27
2022-10-22T23:20:44.009Z,8.48
2022-10-22T23:23:10.397Z,8.68
2022-10-22T23:25:36.806Z,8.63
2022-10-22T23:28:03.156Z,8.20
2022-10-22T23:30:29.722Z,8.27
2022-10-22T23:32:56.236Z,9.63
2022-10-22T23:35:22.648Z,8.95
2022-10-22T23:37:49.028Z,8.65
2022-10-22T23:40:15.460Z,8.32
2022-10-22T23:42:45.012Z,8.27
2022-10-22T23:45:11.865Z,8.63
2022-10-22T23:47:38.337Z,8.27
2022-10-22T23:50:04.861Z,8.02
2022-10-22T23:52:31.263Z,8.07
2022-10-22T23:54:57.769Z,8.77
2022-10-22T23:57:24.189Z,8.05
2022-10-22T23:59:50.539Z,7.30
